sensor_id;sensor_type;location;lat;lon;timestamp;P1;durP1;ratioP1;P2;durP2;ratioP2
37367;SDS011;23240;43.210;27.910;2022-12-16T00:02:11;30.13;;;9.55;;
37367;SDS011;23240;43.210;27.910;2022-12-16T00:04:37;28.55;;;8.68;;
37367;SDS011;23240;43.210;27.910;2022-12-16T00:07:02;34.53;;;10.38;;
37367;SDS011;23240;43.210;27.910;2022-12-16T00:09:28;22.08;;;8.75;;
37367;SDS011;23240;43.210;27.910;2022-12-16T00:11:53;26.45;;;8.98;;
37367;SDS011;23240;43.210;27.910;2022-12-16T00:14:19;24.35;;;8.68;;
37367;SDS011;23240;43.210;27.910;2022-12-16T00:16:45;23.25;;;8.90;;
37367;SDS011;23240;43.210;27.910;2022-12-16T00:19:10;26.77;;;10.23;;
37367;SDS011;23240;43.210;27.910;2022-12-16T00:21:36;19.20;;;7.50;;
37367;SDS011;23240;43.210;27.910;2022-12-16T00:24:01;23.98;;;7.70;;
37367;SDS011;23240;43.210;27.910;2022-12-16T00:26:27;18.38;;;7.68;;
37367;SDS011;23240;43.210;27.910;2022-12-16T00:28:55;23.17;;;7.75;;
37367;SDS011;23240;43.210;27.910;2022-12-16T00:31:20;21.70;;;7.72;;
37367;SDS011;23240;43.210;27.910;2022-12-16T00:33:46;23.88;;;8.13;;
37367;SDS011;23240;43.210;27.910;2022-12-16T00:36:12;18.25;;;6.30;;
37367;SDS011;23240;43.210;27.910;2022-12-16T00:38:37;19.50;;;6.60;;
37367;SDS011;23240;43.210;27.910;2022-12-16T00:41:03;16.42;;;6.80;;
37367;SDS011;23240;43.210;27.910;2022-12-16T00:43:29;17.83;;;7.25;;
37367;SDS011;23240;43.210;27.910;2022-12-16T00:45:54;16.77;;;6.60;;
37367;SDS011;23240;43.210;27.910;2022-12-16T00:48:20;20.23;;;6.45;;
37367;SDS011;23240;43.210;27.910;2022-12-16T00:50:50;19.58;;;6.50;;
37367;SDS011;23240;43.210;27.910;2022-12-16T00:53:18;19.15;;;5.85;;
37367;SDS011;23240;43.210;27.910;2022-12-16T00:55:44;16.92;;;6.32;;
37367;SDS011;23240;43.210;27.910;2022-12-16T00:58:10;21.25;;;7.25;;
37367;SDS011;23240;43.210;27.910;2022-12-16T01:00:36;18.25;;;5.63;;
37367;SDS011;23240;43.210;27.910;2022-12-16T01:03:02;8.80;;;4.80;;
37367;SDS011;23240;43.210;27.910;2022-12-16T01:05:28;17.55;;;5.95;;
37367;SDS011;23240;43.210;27.910;2022-12-16T01:07:54;17.38;;;5.85;;
37367;SDS011;23240;43.210;27.910;2022-12-16T01:10:20;15.80;;;6.10;;
37367;SDS011;23240;43.210;27.910;2022-12-16T01:12:47;12.02;;;5.25;;
37367;SDS011;23240;43.210;27.910;2022-12-16T01:15:12;14.13;;;4.88;;
37367;SDS011;23240;43.210;27.910;2022-12-16T01:17:39;16.48;;;5.30;;
37367;SDS011;23240;43.210;27.910;2022-12-16T01:20:05;22.92;;;6.47;;
37367;SDS011;23240;43.210;27.910;2022-12-16T01:22:31;19.08;;;6.90;;
37367;SDS011;23240;43.210;27.910;2022-12-16T01:24:58;20.80;;;5.68;;
37367;SDS011;23240;43.210;27.910;2022-12-16T01:27:24;14.80;;;5.28;;
37367;SDS011;23240;43.210;27.910;2022-12-16T01:29:50;18.38;;;5.90;;
37367;SDS011;23240;43.210;27.910;2022-12-16T01:32:15;16.70;;;6.57;;
37367;SDS011;23240;43.210;27.910;2022-12-16T01:34:41;13.90;;;5.85;;
37367;SDS011;23240;43.210;27.910;2022-12-16T01:37:10;16.42;;;5.82;;
37367;SDS011;23240;43.210;27.910;2022-12-16T01:39:36;19.35;;;5.88;;
37367;SDS011;23240;43.210;27.910;2022-12-16T01:42:02;14.98;;;5.25;;
37367;SDS011;23240;43.210;27.910;2022-12-16T01:44:28;12.73;;;4.22;;
37367;SDS011;23240;43.210;27.910;2022-12-16T01:46:55;14.75;;;5.53;;
37367;SDS011;23240;43.210;27.910;2022-12-16T01:51:52;11.60;;;4.32;;
37367;SDS011;23240;43.210;27.910;2022-12-16T01:54:23;17.00;;;5.53;;
37367;SDS011;23240;43.210;27.910;2022-12-16T01:56:54;15.65;;;6.03;;
37367;SDS011;23240;43.210;27.910;2022-12-16T01:59:24;12.27;;;5.22;;
37367;SDS011;23240;43.210;27.910;2022-12-16T02:01:52;13.90;;;4.95;;
37367;SDS011;23240;43.210;27.910;2022-12-16T02:04:18;16.80;;;5.57;;
37367;SDS011;23240;43.210;27.910;2022-12-16T02:06:44;14.48;;;5.00;;
37367;SDS011;23240;43.210;27.910;2022-12-16T02:09:10;16.13;;;5.63;;
37367;SDS011;23240;43.210;27.910;2022-12-16T02:11:50;15.00;;;4.00;;
37367;SDS011;23240;43.210;27.910;2022-12-16T02:17:04;11.95;;;4.72;;
37367;SDS011;23240;43.210;27.910;2022-12-16T02:31:12;10.68;;;4.75;;
37367;SDS011;23240;43.210;27.910;2022-12-16T02:33:44;11.18;;;4.43;;
37367;SDS011;23240;43.210;27.910;2022-12-16T02:41:49;18.25;;;4.90;;
37367;SDS011;23240;43.210;27.910;2022-12-16T02:44:29;13.23;;;4.38;;
37367;SDS011;23240;43.210;27.910;2022-12-16T02:46:59;11.93;;;4.55;;
37367;SDS011;23240;43.210;27.910;2022-12-16T02:51:50;12.48;;;4.50;;
37367;SDS011;23240;43.210;27.910;2022-12-16T02:54:16;13.82;;;4.40;;
37367;SDS011;23240;43.210;27.910;2022-12-16T02:59:26;17.60;;;4.70;;
37367;SDS011;23240;43.210;27.910;2022-12-16T03:04:41;10.65;;;4.70;;
37367;SDS011;23240;43.210;27.910;2022-12-16T03:07:13;8.45;;;3.88;;
37367;SDS011;23240;43.210;27.910;2022-12-16T03:09:41;10.75;;;3.72;;
37367;SDS011;23240;43.210;27.910;2022-12-16T03:12:12;11.25;;;4.10;;
37367;SDS011;23240;43.210;27.910;2022-12-16T03:14:41;7.80;;;3.22;;
37367;SDS011;23240;43.210;27.910;2022-12-16T03:17:10;7.97;;;3.30;;
37367;SDS011;23240;43.210;27.910;2022-12-16T03:19:38;8.85;;;3.78;;
37367;SDS011;23240;43.210;27.910;2022-12-16T03:22:10;8.80;;;3.38;;
37367;SDS011;23240;43.210;27.910;2022-12-16T03:24:39;9.48;;;3.80;;
37367;SDS011;23240;43.210;27.910;2022-12-16T03:27:38;8.65;;;3.58;;
37367;SDS011;23240;43.210;27.910;2022-12-16T03:30:01;6.60;;;3.10;;
37367;SDS011;23240;43.210;27.910;2022-12-16T03:38:08;9.27;;;3.13;;
37367;SDS011;23240;43.210;27.910;2022-12-16T03:40:36;12.60;;;3.58;;
37367;SDS011;23240;43.210;27.910;2022-12-16T03:43:03;12.02;;;3.97;;
37367;SDS011;23240;43.210;27.910;2022-12-16T03:45:37;12.68;;;4.40;;
37367;SDS011;23240;43.210;27.910;2022-12-16T03:48:07;9.93;;;3.70;;
37367;SDS011;23240;43.210;27.910;2022-12-16T03:50:33;11.82;;;3.58;;
37367;SDS011;23240;43.210;27.910;2022-12-16T03:53:00;8.68;;;3.55;;
37367;SDS011;23240;43.210;27.910;2022-12-16T03:55:26;12.15;;;3.80;;
37367;SDS011;23240;43.210;27.910;2022-12-16T03:57:51;10.63;;;3.40;;
37367;SDS011;23240;43.210;27.910;2022-12-16T04:00:17;9.75;;;3.72;;
37367;SDS011;23240;43.210;27.910;2022-12-16T04:02:42;12.15;;;3.85;;
37367;SDS011;23240;43.210;27.910;2022-12-16T04:05:08;10.25;;;4.10;;
37367;SDS011;23240;43.210;27.910;2022-12-16T04:07:35;10.95;;;4.20;;
37367;SDS011;23240;43.210;27.910;2022-12-16T04:10:00;9.15;;;3.53;;
37367;SDS011;23240;43.210;27.910;2022-12-16T04:12:26;12.15;;;4.40;;
37367;SDS011;23240;43.210;27.910;2022-12-16T04:15:10;10.73;;;3.78;;
37367;SDS011;23240;43.210;27.910;2022-12-16T04:17:54;11.13;;;4.10;;
37367;SDS011;23240;43.210;27.910;2022-12-16T04:20:39;11.40;;;3.88;;
37367;SDS011;23240;43.210;27.910;2022-12-16T04:23:28;10.77;;;3.35;;
37367;SDS011;23240;43.210;27.910;2022-12-16T04:26:14;9.48;;;3.78;;
37367;SDS011;23240;43.210;27.910;2022-12-16T04:28:40;11.63;;;3.97;;
37367;SDS011;23240;43.210;27.910;2022-12-16T04:31:06;11.27;;;3.95;;
37367;SDS011;23240;43.210;27.910;2022-12-16T04:33:32;13.30;;;3.90;;
37367;SDS011;23240;43.210;27.910;2022-12-16T04:36:16;9.10;;;3.67;;
37367;SDS011;23240;43.210;27.910;2022-12-16T04:39:00;10.52;;;3.20;;
37367;SDS011;23240;43.210;27.910;2022-12-16T04:41:43;10.48;;;3.70;;
37367;SDS011;23240;43.210;27.910;2022-12-16T04:44:28;10.55;;;3.65;;
37367;SDS011;23240;43.210;27.910;2022-12-16T04:47:12;9.98;;;3.70;;
37367;SDS011;23240;43.210;27.910;2022-12-16T04:49:56;10.50;;;4.13;;
37367;SDS011;23240;43.210;27.910;2022-12-16T04:52:40;11.27;;;3.08;;
37367;SDS011;23240;43.210;27.910;2022-12-16T04:55:23;10.07;;;3.58;;
37367;SDS011;23240;43.210;27.910;2022-12-16T04:58:07;9.65;;;3.92;;
37367;SDS011;23240;43.210;27.910;2022-12-16T05:00:51;8.05;;;3.33;;
37367;SDS011;23240;43.210;27.910;2022-12-16T05:03:35;7.35;;;3.10;;
37367;SDS011;23240;43.210;27.910;2022-12-16T05:06:19;10.00;;;3.13;;
37367;SDS011;23240;43.210;27.910;2022-12-16T05:09:03;12.07;;;3.42;;
37367;SDS011;23240;43.210;27.910;2022-12-16T05:11:48;8.85;;;3.65;;
37367;SDS011;23240;43.210;27.910;2022-12-16T05:14:33;6.75;;;2.88;;
37367;SDS011;23240;43.210;27.910;2022-12-16T05:17:17;9.23;;;3.13;;
37367;SDS011;23240;43.210;27.910;2022-12-16T05:20:02;7.70;;;3.17;;
37367;SDS011;23240;43.210;27.910;2022-12-16T05:22:46;4.22;;;2.17;;
37367;SDS011;23240;43.210;27.910;2022-12-16T05:28:14;6.50;;;2.88;;
37367;SDS011;23240;43.210;27.910;2022-12-16T05:33:42;6.78;;;3.30;;
37367;SDS011;23240;43.210;27.910;2022-12-16T05:36:26;8.45;;;3.03;;
37367;SDS011;23240;43.210;27.910;2022-12-16T05:39:10;9.27;;;3.92;;
37367;SDS011;23240;43.210;27.910;2022-12-16T05:41:54;4.80;;;2.80;;
37367;SDS011;23240;43.210;27.910;2022-12-16T05:44:38;10.48;;;3.22;;
37367;SDS011;23240;43.210;27.910;2022-12-16T05:47:23;6.35;;;2.78;;
37367;SDS011;23240;43.210;27.910;2022-12-16T05:50:12;6.97;;;3.17;;
37367;SDS011;23240;43.210;27.910;2022-12-16T05:55:41;8.50;;;3.00;;
37367;SDS011;23240;43.210;27.910;2022-12-16T05:58:26;6.68;;;3.58;;
37367;SDS011;23240;43.210;27.910;2022-12-16T06:01:10;11.88;;;3.58;;
37367;SDS011;23240;43.210;27.910;2022-12-16T06:03:54;10.95;;;3.03;;
37367;SDS011;23240;43.210;27.910;2022-12-16T06:06:38;9.48;;;3.28;;
37367;SDS011;23240;43.210;27.910;2022-12-16T06:09:22;6.05;;;2.70;;
37367;SDS011;23240;43.210;27.910;2022-12-16T06:12:06;8.95;;;3.45;;
37367;SDS011;23240;43.210;27.910;2022-12-16T06:14:50;9.77;;;3.40;;
37367;SDS011;23240;43.210;27.910;2022-12-16T06:17:35;7.28;;;3.25;;
37367;SDS011;23240;43.210;27.910;2022-12-16T06:20:19;9.57;;;4.03;;
37367;SDS011;23240;43.210;27.910;2022-12-16T06:23:04;7.15;;;3.17;;
37367;SDS011;23240;43.210;27.910;2022-12-16T06:25:48;9.15;;;3.08;;
37367;SDS011;23240;43.210;27.910;2022-12-16T06:28:32;10.00;;;4.05;;
37367;SDS011;23240;43.210;27.910;2022-12-16T06:31:16;10.73;;;4.10;;
37367;SDS011;23240;43.210;27.910;2022-12-16T06:34:00;6.15;;;2.38;;
37367;SDS011;23240;43.210;27.910;2022-12-16T06:37:01;9.20;;;3.42;;
37367;SDS011;23240;43.210;27.910;2022-12-16T06:39:45;6.32;;;3.25;;
37367;SDS011;23240;43.210;27.910;2022-12-16T06:45:13;6.82;;;2.90;;
37367;SDS011;23240;43.210;27.910;2022-12-16T06:47:57;8.77;;;3.85;;
37367;SDS011;23240;43.210;27.910;2022-12-16T06:50:41;6.60;;;3.72;;
37367;SDS011;23240;43.210;27.910;2022-12-16T06:53:25;6.35;;;3.33;;
37367;SDS011;23240;43.210;27.910;2022-12-16T06:56:09;6.97;;;2.83;;
37367;SDS011;23240;43.210;27.910;2022-12-16T06:58:53;7.68;;;3.75;;
37367;SDS011;23240;43.210;27.910;2022-12-16T07:01:37;6.30;;;2.80;;
37367;SDS011;23240;43.210;27.910;2022-12-16T07:04:21;6.05;;;2.90;;
37367;SDS011;23240;43.210;27.910;2022-12-16T07:07:05;5.95;;;2.83;;
37367;SDS011;23240;43.210;27.910;2022-12-16T07:09:54;8.23;;;3.08;;
37367;SDS011;23240;43.210;27.910;2022-12-16T07:12:38;8.10;;;3.05;;
37367;SDS011;23240;43.210;27.910;2022-12-16T07:18:06;7.15;;;2.88;;
37367;SDS011;23240;43.210;27.910;2022-12-16T07:20:50;6.72;;;2.60;;
37367;SDS011;23240;43.210;27.910;2022-12-16T07:23:34;4.80;;;2.70;;
37367;SDS011;23240;43.210;27.910;2022-12-16T07:29:02;6.70;;;2.57;;
37367;SDS011;23240;43.210;27.910;2022-12-16T07:31:46;8.57;;;3.25;;
37367;SDS011;23240;43.210;27.910;2022-12-16T07:34:29;12.98;;;3.42;;
37367;SDS011;23240;43.210;27.910;2022-12-16T07:37:13;7.05;;;2.72;;
37367;SDS011;23240;43.210;27.910;2022-12-16T07:39:57;6.53;;;2.65;;
37367;SDS011;23240;43.210;27.910;2022-12-16T07:42:41;5.70;;;2.92;;
37367;SDS011;23240;43.210;27.910;2022-12-16T07:45:25;6.90;;;3.22;;
37367;SDS011;23240;43.210;27.910;2022-12-16T07:50:53;5.53;;;2.58;;
37367;SDS011;23240;43.210;27.910;2022-12-16T07:53:37;9.00;;;2.80;;
37367;SDS011;23240;43.210;27.910;2022-12-16T07:56:21;3.95;;;2.65;;
37367;SDS011;23240;43.210;27.910;2022-12-16T07:59:05;6.72;;;2.72;;
37367;SDS011;23240;43.210;27.910;2022-12-16T08:04:33;6.13;;;2.60;;
37367;SDS011;23240;43.210;27.910;2022-12-16T08:07:17;8.05;;;3.10;;
37367;SDS011;23240;43.210;27.910;2022-12-16T08:10:01;6.13;;;3.05;;
37367;SDS011;23240;43.210;27.910;2022-12-16T08:12:45;7.85;;;3.22;;
37367;SDS011;23240;43.210;27.910;2022-12-16T08:15:29;8.18;;;3.25;;
37367;SDS011;23240;43.210;27.910;2022-12-16T08:18:13;7.00;;;3.17;;
37367;SDS011;23240;43.210;27.910;2022-12-16T08:20:57;6.38;;;2.70;;
37367;SDS011;23240;43.210;27.910;2022-12-16T08:23:41;10.82;;;2.90;;
37367;SDS011;23240;43.210;27.910;2022-12-16T08:26:25;10.38;;;3.60;;
37367;SDS011;23240;43.210;27.910;2022-12-16T08:29:09;7.68;;;3.28;;
37367;SDS011;23240;43.210;27.910;2022-12-16T08:31:53;6.00;;;2.95;;
37367;SDS011;23240;43.210;27.910;2022-12-16T08:34:37;8.98;;;2.90;;
37367;SDS011;23240;43.210;27.910;2022-12-16T08:37:21;7.75;;;3.58;;
37367;SDS011;23240;43.210;27.910;2022-12-16T08:40:05;7.60;;;3.05;;
37367;SDS011;23240;43.210;27.910;2022-12-16T08:42:50;5.55;;;3.10;;
37367;SDS011;23240;43.210;27.910;2022-12-16T08:45:33;5.95;;;2.63;;
37367;SDS011;23240;43.210;27.910;2022-12-16T08:48:17;4.50;;;2.47;;
37367;SDS011;23240;43.210;27.910;2022-12-16T08:51:02;25.70;;;12.32;;
37367;SDS011;23240;43.210;27.910;2022-12-16T08:53:48;7.35;;;3.17;;
37367;SDS011;23240;43.210;27.910;2022-12-16T08:56:33;5.47;;;2.80;;
37367;SDS011;23240;43.210;27.910;2022-12-16T08:59:17;12.02;;;3.50;;
37367;SDS011;23240;43.210;27.910;2022-12-16T09:02:01;6.15;;;2.88;;
37367;SDS011;23240;43.210;27.910;2022-12-16T09:04:45;9.75;;;3.30;;
37367;SDS011;23240;43.210;27.910;2022-12-16T09:07:28;11.20;;;3.28;;
37367;SDS011;23240;43.210;27.910;2022-12-16T09:10:20;6.90;;;3.47;;
37367;SDS011;23240;43.210;27.910;2022-12-16T09:18:33;6.70;;;2.53;;
37367;SDS011;23240;43.210;27.910;2022-12-16T09:21:17;11.85;;;3.22;;
37367;SDS011;23240;43.210;27.910;2022-12-16T09:24:01;9.43;;;3.47;;
37367;SDS011;23240;43.210;27.910;2022-12-16T09:26:45;8.20;;;3.78;;
37367;SDS011;23240;43.210;27.910;2022-12-16T09:29:29;7.38;;;3.35;;
37367;SDS011;23240;43.210;27.910;2022-12-16T09:32:13;9.55;;;3.50;;
37367;SDS011;23240;43.210;27.910;2022-12-16T09:34:57;11.73;;;4.35;;
37367;SDS011;23240;43.210;27.910;2022-12-16T09:37:44;9.30;;;3.78;;
37367;SDS011;23240;43.210;27.910;2022-12-16T09:40:29;9.10;;;3.50;;
37367;SDS011;23240;43.210;27.910;2022-12-16T09:46:03;10.00;;;3.70;;
37367;SDS011;23240;43.210;27.910;2022-12-16T09:52:10;7.38;;;3.20;;
37367;SDS011;23240;43.210;27.910;2022-12-16T09:55:01;12.88;;;3.83;;
37367;SDS011;23240;43.210;27.910;2022-12-16T09:57:47;15.95;;;5.32;;
37367;SDS011;23240;43.210;27.910;2022-12-16T10:00:31;17.75;;;5.53;;
37367;SDS011;23240;43.210;27.910;2022-12-16T10:06:32;11.73;;;4.28;;
37367;SDS011;23240;43.210;27.910;2022-12-16T10:12:36;14.30;;;5.22;;
37367;SDS011;23240;43.210;27.910;2022-12-16T10:18:49;13.00;;;5.05;;
37367;SDS011;23240;43.210;27.910;2022-12-16T10:21:42;17.05;;;4.78;;
37367;SDS011;23240;43.210;27.910;2022-12-16T10:27:18;15.30;;;4.60;;
37367;SDS011;23240;43.210;27.910;2022-12-16T10:30:20;10.07;;;4.43;;
37367;SDS011;23240;43.210;27.910;2022-12-16T10:33:06;14.15;;;5.05;;
37367;SDS011;23240;43.210;27.910;2022-12-16T10:35:54;14.30;;;4.75;;
37367;SDS011;23240;43.210;27.910;2022-12-16T10:41:45;15.25;;;4.88;;
37367;SDS011;23240;43.210;27.910;2022-12-16T10:44:35;15.23;;;5.13;;
37367;SDS011;23240;43.210;27.910;2022-12-16T10:47:26;20.25;;;6.10;;
37367;SDS011;23240;43.210;27.910;2022-12-16T10:53:02;12.38;;;4.40;;
37367;SDS011;23240;43.210;27.910;2022-12-16T10:58:56;18.25;;;5.18;;
37367;SDS011;23240;43.210;27.910;2022-12-16T11:02:15;12.73;;;4.95;;
37367;SDS011;23240;43.210;27.910;2022-12-16T11:04:59;14.18;;;4.70;;
37367;SDS011;23240;43.210;27.910;2022-12-16T11:08:00;12.50;;;5.63;;
37367;SDS011;23240;43.210;27.910;2022-12-16T11:10:44;16.60;;;4.85;;
37367;SDS011;23240;43.210;27.910;2022-12-16T11:16:23;15.77;;;5.43;;
37367;SDS011;23240;43.210;27.910;2022-12-16T11:19:20;11.75;;;4.35;;
37367;SDS011;23240;43.210;27.910;2022-12-16T11:22:26;15.65;;;4.78;;
37367;SDS011;23240;43.210;27.910;2022-12-16T11:28:15;14.43;;;4.75;;
37367;SDS011;23240;43.210;27.910;2022-12-16T11:31:02;17.73;;;5.22;;
37367;SDS011;23240;43.210;27.910;2022-12-16T11:33:49;17.67;;;6.05;;
37367;SDS011;23240;43.210;27.910;2022-12-16T11:36:36;13.68;;;5.05;;
37367;SDS011;23240;43.210;27.910;2022-12-16T11:39:22;14.02;;;5.05;;
37367;SDS011;23240;43.210;27.910;2022-12-16T11:42:11;13.82;;;5.13;;
37367;SDS011;23240;43.210;27.910;2022-12-16T11:45:02;16.20;;;5.30;;
37367;SDS011;23240;43.210;27.910;2022-12-16T11:47:52;15.63;;;4.88;;
37367;SDS011;23240;43.210;27.910;2022-12-16T11:50:58;15.05;;;4.38;;
37367;SDS011;23240;43.210;27.910;2022-12-16T11:56:52;20.05;;;6.28;;
37367;SDS011;23240;43.210;27.910;2022-12-16T11:59:58;15.43;;;5.43;;
37367;SDS011;23240;43.210;27.910;2022-12-16T12:03:17;13.38;;;4.70;;
37367;SDS011;23240;43.210;27.910;2022-12-16T12:09:02;18.02;;;4.85;;
37367;SDS011;23240;43.210;27.910;2022-12-16T12:14:52;11.63;;;4.90;;
37367;SDS011;23240;43.210;27.910;2022-12-16T12:18:31;15.32;;;5.63;;
37367;SDS011;23240;43.210;27.910;2022-12-16T12:21:42;15.95;;;4.85;;
37367;SDS011;23240;43.210;27.910;2022-12-16T12:24:48;15.82;;;4.75;;
37367;SDS011;23240;43.210;27.910;2022-12-16T12:27:47;11.98;;;4.70;;
37367;SDS011;23240;43.210;27.910;2022-12-16T12:30:53;14.10;;;4.68;;
37367;SDS011;23240;43.210;27.910;2022-12-16T12:33:59;13.18;;;4.82;;
37367;SDS011;23240;43.210;27.910;2022-12-16T12:43:24;9.98;;;4.10;;
37367;SDS011;23240;43.210;27.910;2022-12-16T12:52:07;14.27;;;5.07;;
37367;SDS011;23240;43.210;27.910;2022-12-16T12:54:59;19.48;;;6.88;;
37367;SDS011;23240;43.210;27.910;2022-12-16T12:57:45;15.73;;;5.32;;
37367;SDS011;23240;43.210;27.910;2022-12-16T13:00:34;12.32;;;4.32;;
37367;SDS011;23240;43.210;27.910;2022-12-16T13:06:21;11.73;;;4.43;;
37367;SDS011;23240;43.210;27.910;2022-12-16T13:20:42;14.15;;;4.75;;
37367;SDS011;23240;43.210;27.910;2022-12-16T13:23:28;12.73;;;4.72;;
37367;SDS011;23240;43.210;27.910;2022-12-16T13:26:20;11.35;;;4.72;;
37367;SDS011;23240;43.210;27.910;2022-12-16T13:32:01;16.13;;;4.70;;
37367;SDS011;23240;43.210;27.910;2022-12-16T13:37:54;16.00;;;4.90;;
37367;SDS011;23240;43.210;27.910;2022-12-16T13:44:11;12.18;;;4.25;;
37367;SDS011;23240;43.210;27.910;2022-12-16T13:50:35;15.70;;;4.85;;
37367;SDS011;23240;43.210;27.910;2022-12-16T13:53:39;15.18;;;5.15;;
37367;SDS011;23240;43.210;27.910;2022-12-16T13:56:32;15.57;;;4.85;;
37367;SDS011;23240;43.210;27.910;2022-12-16T13:59:21;13.98;;;5.22;;
37367;SDS011;23240;43.210;27.910;2022-12-16T14:02:20;11.73;;;4.88;;
37367;SDS011;23240;43.210;27.910;2022-12-16T14:05:36;17.42;;;4.75;;
37367;SDS011;23240;43.210;27.910;2022-12-16T14:08:26;13.82;;;5.25;;
37367;SDS011;23240;43.210;27.910;2022-12-16T14:11:18;15.88;;;5.50;;
37367;SDS011;23240;43.210;27.910;2022-12-16T14:17:13;9.68;;;3.70;;
37367;SDS011;23240;43.210;27.910;2022-12-16T14:20:21;13.00;;;3.80;;
37367;SDS011;23240;43.210;27.910;2022-12-16T14:23:32;11.20;;;4.40;;
37367;SDS011;23240;43.210;27.910;2022-12-16T14:26:24;16.33;;;4.53;;
37367;SDS011;23240;43.210;27.910;2022-12-16T14:29:22;15.35;;;4.50;;
37367;SDS011;23240;43.210;27.910;2022-12-16T14:32:27;16.08;;;5.60;;
37367;SDS011;23240;43.210;27.910;2022-12-16T14:35:21;15.15;;;5.30;;
37367;SDS011;23240;43.210;27.910;2022-12-16T14:38:26;14.30;;;4.97;;
37367;SDS011;23240;43.210;27.910;2022-12-16T14:41:21;13.38;;;4.97;;
37367;SDS011;23240;43.210;27.910;2022-12-16T14:44:21;19.95;;;5.25;;
37367;SDS011;23240;43.210;27.910;2022-12-16T14:47:16;18.73;;;5.43;;
37367;SDS011;23240;43.210;27.910;2022-12-16T14:50:02;21.13;;;6.90;;
37367;SDS011;23240;43.210;27.910;2022-12-16T14:53:05;19.08;;;7.43;;
37367;SDS011;23240;43.210;27.910;2022-12-16T14:56:07;14.65;;;4.45;;
37367;SDS011;23240;43.210;27.910;2022-12-16T14:59:17;16.80;;;6.18;;
37367;SDS011;23240;43.210;27.910;2022-12-16T15:02:09;16.02;;;5.55;;
37367;SDS011;23240;43.210;27.910;2022-12-16T15:04:54;18.80;;;5.65;;
37367;SDS011;23240;43.210;27.910;2022-12-16T15:07:38;22.15;;;6.18;;
37367;SDS011;23240;43.210;27.910;2022-12-16T15:10:23;18.85;;;5.95;;
37367;SDS011;23240;43.210;27.910;2022-12-16T15:13:15;14.75;;;5.30;;
37367;SDS011;23240;43.210;27.910;2022-12-16T15:16:01;12.10;;;5.00;;
37367;SDS011;23240;43.210;27.910;2022-12-16T15:18:46;14.65;;;5.35;;
37367;SDS011;23240;43.210;27.910;2022-12-16T15:21:41;17.25;;;5.68;;
37367;SDS011;23240;43.210;27.910;2022-12-16T15:24:26;15.00;;;5.90;;
37367;SDS011;23240;43.210;27.910;2022-12-16T15:33:26;19.23;;;5.25;;
37367;SDS011;23240;43.210;27.910;2022-12-16T15:36:20;16.20;;;5.70;;
37367;SDS011;23240;43.210;27.910;2022-12-16T15:39:09;19.45;;;6.20;;
37367;SDS011;23240;43.210;27.910;2022-12-16T15:41:59;19.15;;;6.70;;
37367;SDS011;23240;43.210;27.910;2022-12-16T15:47:32;18.02;;;6.53;;
37367;SDS011;23240;43.210;27.910;2022-12-16T15:50:20;19.00;;;6.90;;
37367;SDS011;23240;43.210;27.910;2022-12-16T15:53:40;18.67;;;7.38;;
37367;SDS011;23240;43.210;27.910;2022-12-16T15:56:21;20.48;;;7.35;;
37367;SDS011;23240;43.210;27.910;2022-12-16T15:59:24;21.77;;;8.48;;
37367;SDS011;23240;43.210;27.910;2022-12-16T16:02:28;20.65;;;7.25;;
37367;SDS011;23240;43.210;27.910;2022-12-16T16:05:20;21.30;;;7.75;;
37367;SDS011;23240;43.210;27.910;2022-12-16T16:08:08;25.83;;;8.00;;
37367;SDS011;23240;43.210;27.910;2022-12-16T16:10:53;21.63;;;8.32;;
37367;SDS011;23240;43.210;27.910;2022-12-16T16:16:21;22.90;;;8.90;;
37367;SDS011;23240;43.210;27.910;2022-12-16T16:21:54;29.05;;;10.35;;
37367;SDS011;23240;43.210;27.910;2022-12-16T16:24:38;26.60;;;10.63;;
37367;SDS011;23240;43.210;27.910;2022-12-16T16:27:22;26.35;;;9.43;;
37367;SDS011;23240;43.210;27.910;2022-12-16T16:30:09;24.40;;;10.10;;
37367;SDS011;23240;43.210;27.910;2022-12-16T16:32:53;24.90;;;9.77;;
37367;SDS011;23240;43.210;27.910;2022-12-16T16:35:39;25.63;;;10.00;;
37367;SDS011;23240;43.210;27.910;2022-12-16T16:38:23;27.67;;;10.98;;
37367;SDS011;23240;43.210;27.910;2022-12-16T16:41:10;28.23;;;10.70;;
37367;SDS011;23240;43.210;27.910;2022-12-16T16:43:57;28.13;;;10.70;;
37367;SDS011;23240;43.210;27.910;2022-12-16T16:46:41;28.40;;;10.77;;
37367;SDS011;23240;43.210;27.910;2022-12-16T16:49:30;26.98;;;10.23;;
37367;SDS011;23240;43.210;27.910;2022-12-16T16:52:17;26.38;;;10.50;;
37367;SDS011;23240;43.210;27.910;2022-12-16T16:55:04;27.13;;;10.55;;
37367;SDS011;23240;43.210;27.910;2022-12-16T16:57:48;26.77;;;10.93;;
37367;SDS011;23240;43.210;27.910;2022-12-16T17:03:16;28.25;;;9.77;;
37367;SDS011;23240;43.210;27.910;2022-12-16T17:08:44;24.77;;;9.40;;
37367;SDS011;23240;43.210;27.910;2022-12-16T17:11:28;23.83;;;10.10;;
37367;SDS011;23240;43.210;27.910;2022-12-16T17:14:14;25.10;;;11.13;;
37367;SDS011;23240;43.210;27.910;2022-12-16T17:17:00;26.90;;;10.55;;
37367;SDS011;23240;43.210;27.910;2022-12-16T17:19:44;26.80;;;11.07;;
37367;SDS011;23240;43.210;27.910;2022-12-16T17:22:29;23.35;;;10.30;;
37367;SDS011;23240;43.210;27.910;2022-12-16T17:27:57;22.98;;;9.25;;
37367;SDS011;23240;43.210;27.910;2022-12-16T17:30:41;26.30;;;8.68;;
37367;SDS011;23240;43.210;27.910;2022-12-16T17:33:25;26.42;;;9.77;;
37367;SDS011;23240;43.210;27.910;2022-12-16T17:36:10;24.17;;;9.48;;
37367;SDS011;23240;43.210;27.910;2022-12-16T17:38:56;24.25;;;8.65;;
37367;SDS011;23240;43.210;27.910;2022-12-16T17:44:24;26.30;;;9.60;;
37367;SDS011;23240;43.210;27.910;2022-12-16T17:47:08;24.95;;;9.43;;
37367;SDS011;23240;43.210;27.910;2022-12-16T17:49:51;29.30;;;10.85;;
37367;SDS011;23240;43.210;27.910;2022-12-16T17:55:20;21.27;;;8.27;;
37367;SDS011;23240;43.210;27.910;2022-12-16T17:58:04;28.85;;;10.65;;
37367;SDS011;23240;43.210;27.910;2022-12-16T18:00:48;28.50;;;10.63;;
37367;SDS011;23240;43.210;27.910;2022-12-16T18:03:32;27.27;;;10.88;;
37367;SDS011;23240;43.210;27.910;2022-12-16T18:06:16;23.83;;;9.25;;
37367;SDS011;23240;43.210;27.910;2022-12-16T18:09:00;26.48;;;10.02;;
37367;SDS011;23240;43.210;27.910;2022-12-16T18:11:44;26.08;;;10.82;;
37367;SDS011;23240;43.210;27.910;2022-12-16T18:17:12;26.77;;;10.47;;
37367;SDS011;23240;43.210;27.910;2022-12-16T18:22:40;23.67;;;9.02;;
37367;SDS011;23240;43.210;27.910;2022-12-16T18:25:24;26.67;;;9.50;;
37367;SDS011;23240;43.210;27.910;2022-12-16T18:28:08;27.73;;;10.30;;
37367;SDS011;23240;43.210;27.910;2022-12-16T18:30:52;25.00;;;10.23;;
37367;SDS011;23240;43.210;27.910;2022-12-16T18:33:36;28.83;;;10.43;;
37367;SDS011;23240;43.210;27.910;2022-12-16T18:36:20;26.50;;;9.80;;
37367;SDS011;23240;43.210;27.910;2022-12-16T18:39:04;34.78;;;10.98;;
37367;SDS011;23240;43.210;27.910;2022-12-16T18:44:32;24.97;;;9.80;;
37367;SDS011;23240;43.210;27.910;2022-12-16T18:47:17;29.75;;;9.85;;
37367;SDS011;23240;43.210;27.910;2022-12-16T18:50:02;22.35;;;7.82;;
37367;SDS011;23240;43.210;27.910;2022-12-16T18:52:47;22.38;;;7.45;;
37367;SDS011;23240;43.210;27.910;2022-12-16T18:58:14;28.53;;;10.13;;
37367;SDS011;23240;43.210;27.910;2022-12-16T19:00:59;30.05;;;10.77;;
37367;SDS011;23240;43.210;27.910;2022-12-16T19:03:51;29.55;;;10.05;;